Time;durP1;ratioP1;P1;durP2;ratioP2;P2;SDS_P1;SDS_P2;PMS_P1;PMS_P2;Temp;Humidity;BMP_temperature;BMP_pressure;BME280_temperature;BME280_humidity;BME280_pressure;Samples;Min_cycle;Max_cycle;Signal;HPM_P1;HPM_P2
2022/06/13 00:01:28;;;;;;;0.43;0.43;;;20.50;56.80;;;20.66;40.50;94968.19;5054764;28;20202;-79
2022/06/13 00:04:00;;;;;;;0.50;0.50;;;20.30;57.10;;;20.54;40.67;94972.88;5058198;28;20203;-79
2022/06/13 00:06:28;;;;;;;0.50;0.50;;;20.20;57.00;;;20.42;40.74;94965.06;5068320;28;20604;-79
2022/06/13 00:08:55;;;;;;;0.40;0.40;;;20.00;57.10;;;20.29;41.22;94956.41;5054800;28;20289;-79
2022/06/13 00:11:24;;;;;;;0.47;0.47;;;19.90;57.30;;;20.20;41.10;94960.59;5065760;28;20254;-79
2022/06/13 00:13:56;;;;;;;0.50;0.50;;;19.90;58.00;;;20.12;41.63;94956.50;5054712;28;20218;-79
2022/06/13 00:16:24;;;;;;;0.40;0.40;;;19.80;57.90;;;20.00;41.17;94946.00;5059034;28;20195;-79
2022/06/13 00:18:52;;;;;;;0.50;0.50;;;19.60;57.80;;;19.94;41.92;94943.53;5054269;28;20589;-79
2022/06/13 00:21:27;;;;;;;0.50;0.50;;;19.60;58.10;;;19.86;42.19;94942.16;5084782;28;20237;-79
2022/06/13 00:23:54;;;;;;;0.45;0.45;;;19.50;58.50;;;19.76;41.89;94942.81;5086235;28;20225;-78
2022/06/13 00:26:24;;;;;;;0.40;0.40;;;19.40;58.30;;;19.70;42.34;94937.66;5086776;28;20219;-77
2022/06/13 00:28:53;;;;;;;0.60;0.60;;;19.30;58.40;;;19.62;42.33;94938.91;5071007;28;20207;-79
2022/06/13 00:31:21;;;;;;;0.50;0.50;;;19.20;58.60;;;19.54;42.39;94936.69;5054154;28;20325;-79
2022/06/13 00:33:48;;;;;;;0.50;0.50;;;19.10;58.60;;;19.45;42.30;94931.00;5055315;28;20206;-79
2022/06/13 00:36:17;;;;;;;0.50;0.50;;;19.10;58.70;;;19.41;42.25;94935.19;5064948;28;20230;-79
2022/06/13 00:38:45;;;;;;;0.40;0.40;;;19.00;58.90;;;19.30;42.18;94921.75;5074419;28;20230;-79
2022/06/13 00:41:23;;;;;;;0.55;0.55;;;18.90;58.90;;;19.29;42.51;94919.34;5055006;28;20640;-77
2022/06/13 00:43:51;;;;;;;0.50;0.50;;;18.80;59.80;;;19.24;42.38;94914.78;5080182;28;20194;-77
2022/06/13 00:46:21;;;;;;;0.50;0.50;;;18.80;59.30;;;19.18;42.63;94911.22;5061868;28;20252;-79
2022/06/13 00:48:54;;;;;;;0.50;0.50;;;18.80;59.80;;;19.13;42.92;94913.03;5078208;28;20243;-79
2022/06/13 00:51:21;;;;;;;0.50;0.50;;;18.70;60.10;;;19.08;43.22;94913.75;5075701;28;20222;-80
2022/06/13 00:53:49;;;;;;;0.50;0.50;;;18.60;59.70;;;19.00;43.45;94914.19;5076952;28;20679;-79
2022/06/13 00:56:23;;;;;;;0.50;0.50;;;18.60;59.80;;;18.97;43.58;94922.63;5073459;28;20234;-78
2022/06/13 00:58:59;;;;;;;0.50;0.50;;;18.60;60.20;;;18.92;44.21;94923.38;5058311;28;20652;-78
2022/06/13 01:01:28;;;;;;;0.50;0.50;;;18.50;60.60;;;18.93;44.38;94919.69;5078081;28;20190;-78
2022/06/13 01:04:05;;;;;;;0.50;0.50;;;18.50;60.30;;;18.92;44.33;94918.06;5076334;28;20198;-78
2022/06/13 01:06:47;;;;;;;0.50;0.50;;;18.40;60.70;;;18.97;44.14;94912.00;5085665;28;20218;-78
2022/06/13 01:09:17;;;;;;;0.50;0.50;;;18.50;61.10;;;19.00;44.26;94904.34;5073150;28;20221;-78
2022/06/13 01:11:51;;;;;;;0.50;0.50;;;18.50;60.90;;;19.02;44.08;94904.13;5077966;28;20691;-78
2022/06/13 01:14:39;;;;;;;0.50;0.50;;;18.50;61.10;;;19.00;43.77;94896.38;5064805;28;20225;-78
2022/06/13 01:17:30;;;;;;;0.50;0.50;;;18.50;61.30;;;18.93;43.65;94893.09;5057743;28;20226;-78
2022/06/13 01:20:12;;;;;;;0.50;0.50;;;18.50;60.70;;;18.93;44.07;94894.94;5040906;28;20227;-78
2022/06/13 01:23:22;;;;;;;0.50;0.50;;;18.40;60.30;;;18.94;44.31;94880.59;5057737;28;20207;-79
2022/06/13 01:26:29;;;;;;;0.45;0.45;;;18.50;60.70;;;18.97;44.35;94880.09;5070813;28;20592;-79
2022/06/13 01:29:25;;;;;;;0.52;0.52;;;18.50;61.10;;;18.97;44.08;94878.25;5057418;28;20645;-78
2022/06/13 01:32:30;;;;;;;0.50;0.50;;;18.50;60.70;;;18.95;44.29;94882.22;5024063;28;20226;-77
2022/06/13 01:35:36;;;;;;;0.50;0.50;;;18.50;61.00;;;18.92;44.36;94869.41;5040623;28;20222;-78
2022/06/13 01:38:53;;;;;;;0.50;0.50;;;18.50;61.40;;;18.87;44.24;94876.25;5059162;28;20222;-79
2022/06/13 01:41:40;;;;;;;0.40;0.40;;;18.40;61.20;;;18.86;44.44;94887.91;5022283;28;20321;-79
2022/06/13 01:44:13;;;;;;;0.47;0.47;;;18.40;61.10;;;18.90;44.79;94880.25;5039837;28;20256;-78
2022/06/13 01:47:09;;;;;;;0.43;0.43;;;18.40;60.90;;;18.94;44.68;94888.59;5055867;28;20207;-79
2022/06/13 01:50:16;;;;;;;0.50;0.50;;;18.40;61.60;;;18.95;44.44;94890.97;5040394;28;20225;-78
2022/06/13 01:53:08;;;;;;;0.43;0.43;;;18.40;61.00;;;18.97;44.62;94882.75;5025530;28;20233;-78
2022/06/13 01:56:04;;;;;;;0.50;0.50;;;18.50;61.90;;;18.93;44.46;94879.81;5071745;28;20218;-78
2022/06/13 01:58:59;;;;;;;0.50;0.50;;;18.50;61.70;;;18.97;44.85;94874.78;5071793;28;20615;-78
2022/06/13 02:01:40;;;;;;;0.50;0.50;;;18.50;61.80;;;18.96;44.89;94867.88;5075409;28;20571;-78
2022/06/13 02:04:21;;;;;;;0.55;0.55;;;18.50;62.30;;;18.96;44.92;94866.03;5050595;28;20686;-78
2022/06/13 02:07:04;;;;;;;0.50;0.50;;;18.50;62.30;;;18.96;45.33;94874.00;5057079;28;20629;-79
2022/06/13 02:09:46;;;;;;;0.50;0.50;;;18.50;62.20;;;18.94;44.72;94876.09;5045771;28;20253;-80
2022/06/13 02:12:16;;;;;;;0.50;0.50;;;18.50;61.70;;;18.97;45.00;94883.59;5056609;28;20203;-79
2022/06/13 02:14:53;;;;;;;0.52;0.52;;;18.50;61.30;;;19.00;45.54;94888.38;5073625;28;20218;-79
2022/06/13 02:17:29;;;;;;;0.40;0.40;;;18.50;62.80;;;19.09;46.00;94880.81;5075517;28;20213;-79
2022/06/13 02:20:12;;;;;;;0.57;0.57;;;18.60;61.90;;;19.24;46.40;94882.03;5058044;28;20220;-78
2022/06/13 02:22:55;;;;;;;0.60;0.60;;;18.60;62.20;;;19.41;45.66;94881.97;5056444;28;20622;-79
2022/06/13 02:25:43;;;;;;;0.40;0.40;;;18.80;62.10;;;19.55;45.43;94874.44;5067206;28;20222;-79
2022/06/13 02:28:59;;;;;;;0.40;0.40;;;18.80;61.90;;;19.71;45.09;94876.19;5074402;28;20214;-78
2022/06/13 02:31:52;;;;;;;0.50;0.50;;;19.00;61.30;;;19.87;45.53;94874.53;5010845;28;20364;-79
2022/06/13 02:34:29;;;;;;;0.50;0.50;;;19.20;62.10;;;19.99;45.17;94877.03;4976062;28;20221;-78
2022/06/13 02:37:14;;;;;;;0.40;0.40;;;19.40;62.10;;;20.09;44.85;94885.13;5052990;28;20230;-78
2022/06/13 02:39:54;;;;;;;0.45;0.45;;;19.50;61.80;;;20.17;44.81;94881.19;5046511;28;20229;-78
2022/06/13 02:42:45;;;;;;;0.40;0.40;;;19.50;61.70;;;20.28;45.39;94892.75;5064264;28;20225;-79
2022/06/13 02:45:29;;;;;;;0.40;0.40;;;19.70;61.80;;;20.36;45.25;94908.28;5083315;28;20708;-79
2022/06/13 02:48:30;;;;;;;0.40;0.40;;;19.80;61.90;;;20.41;45.70;94950.94;5056657;28;20202;-78
2022/06/13 02:51:32;;;;;;;0.50;0.50;;;19.90;62.30;;;20.40;45.91;94956.53;5055820;28;20234;-78
2022/06/13 02:54:19;;;;;;;0.40;0.40;;;20.00;61.50;;;20.44;45.32;94950.41;5089168;28;20202;-78
2022/06/13 02:57:24;;;;;;;0.50;0.50;;;20.00;61.70;;;20.50;45.79;94937.94;5067112;28;20640;-78
2022/06/13 03:00:09;;;;;;;0.40;0.40;;;20.10;61.80;;;20.57;45.75;94946.53;5073051;28;20224;-78
2022/06/13 03:02:57;;;;;;;0.45;0.45;;;20.20;61.70;;;20.61;45.75;94947.63;5083570;28;20601;-79
2022/06/13 03:05:58;;;;;;;0.40;0.40;;;20.20;61.80;;;20.63;46.07;94940.19;5075635;28;20236;-79
2022/06/13 03:09:03;;;;;;;0.40;0.40;;;20.30;62.20;;;20.66;46.34;94944.22;5073270;28;20232;-79
2022/06/13 03:12:02;;;;;;;0.47;0.47;;;20.30;62.20;;;20.61;46.66;94931.63;5078966;28;20749;-78
2022/06/13 03:14:56;;;;;;;0.45;0.45;;;20.30;62.00;;;20.60;46.73;94916.72;5075344;28;20286;-79
2022/06/13 03:17:36;;;;;;;0.43;0.43;;;20.40;62.20;;;20.62;46.94;94927.13;5075476;28;20197;-77
2022/06/13 03:20:15;;;;;;;0.40;0.40;;;20.30;62.90;;;20.58;46.90;94918.84;5071665;28;20250;-78
2022/06/13 03:23:35;;;;;;;0.40;0.40;;;20.30;63.00;;;20.55;46.63;94918.53;5072219;28;20186;-79
2022/06/13 03:26:20;;;;;;;0.50;0.50;;;20.30;62.60;;;20.55;46.83;94915.88;5055105;28;20249;-78
2022/06/13 03:29:08;;;;;;;0.40;0.40;;;20.30;62.80;;;20.51;47.53;94904.94;5072692;28;20195;-78
2022/06/13 03:31:50;;;;;;;0.40;0.40;;;20.30;63.20;;;20.52;47.59;94913.72;5082030;28;20220;-78
2022/06/13 03:34:38;;;;;;;0.40;0.40;;;20.40;63.40;;;20.51;47.74;94906.78;5068960;28;20727;-80
2022/06/13 03:37:15;;;;;;;0.40;0.40;;;20.20;63.60;;;20.50;47.98;94911.31;5089295;28;20218;-78
2022/06/13 03:40:05;;;;;;;0.50;0.50;;;20.20;64.60;;;20.47;48.34;94915.28;5053266;28;20721;-79
2022/06/13 03:42:46;;;;;;;0.43;0.43;;;20.20;64.20;;;20.44;49.04;94917.66;5057888;28;20300;-78
2022/06/13 03:45:40;;;;;;;0.40;0.40;;;20.20;64.20;;;20.39;49.29;94913.09;5071953;28;20586;-78
2022/06/13 03:48:20;;;;;;;0.40;0.40;;;20.20;64.80;;;;;;5085235;28;20191;-77
2022/06/13 03:51:04;;;;;;;0.40;0.40;;;20.10;64.90;;;20.31;49.42;94918.88;5085659;28;20225;-78
2022/06/13 03:53:42;;;;;;;0.40;0.40;;;20.10;65.00;;;20.28;49.76;94927.38;5065706;28;20191;-79
2022/06/13 03:56:19;;;;;;;0.40;0.40;;;20.10;65.10;;;20.28;49.37;94930.03;5069791;28;20330;-78
2022/06/13 03:59:00;;;;;;;0.40;0.40;;;20.10;65.10;;;20.26;49.53;94940.94;5090533;28;20200;-78
2022/06/13 04:01:42;;;;;;;0.40;0.40;;;20.00;65.10;;;20.26;49.90;94966.75;5087169;28;20229;-78
2022/06/13 04:04:43;;;;;;;0.50;0.50;;;20.00;65.00;;;20.22;50.61;94994.97;5069327;28;20533;-78
2022/06/13 04:07:11;;;;;;;0.50;0.50;;;20.00;65.10;;;20.20;51.17;95023.69;5069448;28;20190;-80
2022/06/13 04:09:57;;;;;;;0.40;0.40;;;20.00;65.60;;;20.20;51.39;95055.66;5069861;28;20725;-81
2022/06/13 04:12:44;;;;;;;0.45;0.45;;;20.00;66.40;;;20.14;52.36;95081.41;5071911;28;20563;-80
2022/06/13 04:15:36;;;;;;;0.40;0.40;;;20.00;66.90;;;19.97;57.03;95074.31;5089893;28;20216;-79
2022/06/13 04:19:01;;;;;;;0.50;0.50;;;20.00;68.80;;;19.65;57.29;95087.41;5074430;28;20194;-81
2022/06/13 04:22:18;;;;;;;0.50;0.50;;;19.80;70.00;;;19.27;57.88;95103.06;5012370;28;20204;-81
2022/06/13 04:25:24;;;;;;;0.50;0.50;;;19.60;70.60;;;18.96;59.59;95102.56;5020188;28;20275;-81
2022/06/13 04:28:06;;;;;;;0.50;0.50;;;19.40;71.30;;;18.78;59.33;95094.78;5065737;28;20647;-79
2022/06/13 04:30:35;;;;;;;0.57;0.57;;;19.10;72.20;;;18.64;60.20;95110.19;5087738;28;20237;-80
2022/06/13 04:33:11;;;;;;;0.50;0.50;;;18.90;72.50;;;18.55;60.32;95107.94;5059333;28;20199;-80
2022/06/13 04:35:39;;;;;;;0.50;0.50;;;18.70;73.10;;;18.43;63.32;95115.16;5108094;28;20294;-81
2022/06/13 04:38:11;;;;;;;0.50;0.50;;;18.70;73.80;;;18.36;61.76;95119.78;5090362;28;20639;-80
2022/06/13 04:40:44;;;;;;;0.50;0.50;;;18.50;74.70;;;18.24;62.07;95122.47;5086834;28;20230;-81
2022/06/13 04:43:14;;;;;;;0.50;0.50;;;18.40;75.20;;;18.17;62.16;95130.56;5071173;28;20187;-79
2022/06/13 04:46:01;;;;;;;0.50;0.50;;;18.20;75.30;;;18.06;62.23;95126.88;5053464;28;20214;-80
2022/06/13 04:48:28;;;;;;;0.40;0.40;;;18.20;75.70;;;18.03;64.17;95140.63;5083146;28;20205;-80
2022/06/13 04:51:01;;;;;;;0.47;0.47;;;18.10;76.50;;;17.99;64.08;95133.34;5070919;28;20211;-81
2022/06/13 04:53:53;;;;;;;0.47;0.47;;;18.10;76.80;;;17.94;63.10;95131.38;5070851;28;20190;-81
2022/06/13 04:56:23;;;;;;;0.50;0.50;;;17.90;76.60;;;17.92;64.50;95125.50;5077667;28;20626;-81
2022/06/13 04:58:52;;;;;;;0.50;0.50;;;17.90;77.40;;;17.85;64.75;95111.56;5072762;28;20205;-81
2022/06/13 05:01:36;;;;;;;0.50;0.50;;;17.90;77.90;;;17.84;64.58;95121.34;5090959;28;20197;-80
2022/06/13 05:04:07;;;;;;;0.43;0.43;;;17.80;78.00;;;17.81;64.89;95107.72;5075225;28;20566;-80
2022/06/13 05:06:46;;;;;;;0.50;0.50;;;17.80;78.60;;;17.80;65.56;95116.72;5079242;28;20271;-80
2022/06/13 05:09:37;;;;;;;0.50;0.50;;;17.80;79.30;;;17.71;66.05;95111.78;5072133;28;20198;-80
2022/06/13 05:12:24;;;;;;;0.50;0.50;;;17.70;80.10;;;17.66;65.58;95119.63;5040787;28;20229;-79
2022/06/13 05:15:14;;;;;;;0.50;0.50;;;17.60;80.80;;;17.62;66.04;95112.38;5053919;28;20691;-79
2022/06/13 05:18:07;;;;;;;0.50;0.50;;;17.60;80.50;;;17.62;65.20;95089.28;5073933;28;20220;-79
2022/06/13 05:21:02;;;;;;;0.50;0.50;;;17.60;81.20;;;17.60;64.96;95094.84;5071542;28;20313;-80
2022/06/13 05:24:01;;;;;;;0.50;0.50;;;17.50;81.30;;;17.59;65.54;95098.53;5090992;28;20285;-80
2022/06/13 05:26:29;;;;;;;0.50;0.50;;;17.50;81.60;;;17.62;66.33;95089.28;5055832;28;20225;-79
2022/06/13 05:28:59;;;;;;;0.45;0.45;;;17.50;81.90;;;17.64;66.20;95083.75;5068735;28;20290;-79
2022/06/13 05:31:28;;;;;;;0.45;0.45;;;17.50;82.10;;;17.62;66.30;95076.03;5056143;28;20720;-79
2022/06/13 05:33:58;;;;;;;0.45;0.45;;;17.50;82.50;;;17.66;66.33;95087.00;5060574;28;20228;-80
2022/06/13 05:36:27;;;;;;;0.40;0.40;;;17.50;82.60;;;17.67;66.52;95089.41;5058226;28;20240;-79
2022/06/13 05:38:59;;;;;;;0.50;0.50;;;17.50;82.70;;;17.65;66.82;95088.84;5057501;28;20205;-80
2022/06/13 05:41:27;;;;;;;0.55;0.55;;;17.50;82.60;;;17.66;66.48;95090.44;5057337;28;20203;-79
2022/06/13 05:43:54;;;;;;;0.43;0.43;;;17.40;83.00;;;17.68;66.67;95088.38;5042219;28;20202;-80
2022/06/13 05:46:35;;;;;;;0.50;0.50;;;17.40;83.20;;;17.70;66.66;95083.66;5043591;28;20271;-80
2022/06/13 05:49:03;;;;;;;0.50;0.50;;;17.50;83.40;;;17.70;66.76;95085.47;5060913;28;20264;-79
2022/06/13 05:51:30;;;;;;;0.50;0.50;;;17.50;83.50;;;17.68;66.96;95085.72;5074780;28;20262;-80
2022/06/13 05:53:58;;;;;;;0.50;0.50;;;17.40;83.60;;;17.71;66.72;95084.44;5054486;28;20214;-80
2022/06/13 05:56:26;;;;;;;0.50;0.50;;;17.50;84.00;;;17.70;67.11;95078.34;5057393;28;20206;-79
2022/06/13 05:58:54;;;;;;;0.50;0.50;;;17.50;84.10;;;17.73;67.28;95083.16;5054747;28;20229;-80
2022/06/13 06:01:22;;;;;;;0.50;0.50;;;17.50;84.30;;;17.74;66.91;95076.03;5067307;28;20687;-80
2022/06/13 06:03:50;;;;;;;0.50;0.50;;;17.40;84.30;;;17.73;67.64;95077.84;5056228;28;20211;-78
2022/06/13 06:06:24;;;;;;;0.50;0.50;;;17.40;84.20;;;17.72;67.64;95075.44;5071151;28;20580;-80
2022/06/13 06:08:54;;;;;;;0.50;0.50;;;17.40;84.20;;;17.72;67.88;95063.00;5046382;28;20213;-79
2022/06/13 06:11:23;;;;;;;0.47;0.47;;;17.50;84.90;;;17.73;67.49;95066.47;5057741;28;20235;-78
2022/06/13 06:13:51;;;;;;;0.50;0.50;;;17.50;85.00;;;17.74;67.83;95070.72;5070856;28;20195;-81
2022/06/13 06:16:22;;;;;;;0.60;0.60;;;17.40;85.00;;;17.73;67.88;95056.63;5051015;28;20674;-80
2022/06/13 06:18:52;;;;;;;0.47;0.47;;;17.40;85.00;;;17.79;68.22;95060.22;5077653;28;20198;-81
2022/06/13 06:21:19;;;;;;;0.50;0.50;;;17.50;85.30;;;17.81;68.06;95052.84;5091843;28;20210;-80
2022/06/13 06:23:46;;;;;;;0.52;0.52;;;17.50;85.30;;;17.83;68.52;95041.97;5075655;28;20303;-80
2022/06/13 06:26:24;;;;;;;0.50;0.50;;;17.50;85.50;;;17.87;67.87;95032.50;5073666;28;20327;-80
2022/06/13 06:28:51;;;;;;;0.50;0.50;;;17.60;86.20;;;17.91;68.51;95034.47;5089548;28;20264;-81
2022/06/13 06:31:19;;;;;;;0.43;0.43;;;17.60;86.20;;;17.95;68.13;95048.09;5076107;28;20624;-80
2022/06/13 06:33:47;;;;;;;0.45;0.45;;;17.70;86.40;;;18.01;68.38;95054.31;5076640;28;20205;-81
2022/06/13 06:36:14;;;;;;;0.50;0.50;;;17.60;86.30;;;18.01;68.92;95049.81;5073903;28;20650;-81
2022/06/13 06:38:42;;;;;;;0.50;0.50;;;17.70;86.00;;;18.02;68.44;95035.50;5072015;28;20203;-80
2022/06/13 06:41:09;;;;;;;0.40;0.40;;;17.70;86.10;;;18.05;68.01;95037.69;5056155;28;20233;-81
2022/06/13 06:43:37;;;;;;;0.55;0.55;;;17.70;86.30;;;18.05;68.98;95037.69;5072727;28;20203;-81
2022/06/13 06:46:04;;;;;;;0.45;0.45;;;17.80;86.20;;;18.06;68.93;95017.25;5065517;28;20597;-81
2022/06/13 06:48:32;;;;;;;0.50;0.50;;;17.80;86.30;;;18.07;69.15;95011.72;5078159;28;20199;-80
2022/06/13 06:50:59;;;;;;;0.50;0.50;;;17.80;86.20;;;18.09;68.92;94992.91;5072196;28;20317;-81
2022/06/13 06:59:53;;;;;;;0.50;0.50;;;17.80;86.50;;;18.15;69.10;94989.31;5067774;28;20217;-81
2022/06/13 07:01:46;;;;;;;0.40;0.40;;;17.90;87.50;;;18.33;69.26;94968.91;5073366;28;20206;-82
2022/06/13 07:04:13;;;;;;;0.40;0.40;;;18.00;87.90;;;18.40;69.75;94966.91;5055889;28;20209;-82
2022/06/13 07:06:41;;;;;;;0.50;0.50;;;18.00;88.20;;;18.52;70.12;94972.16;5071470;28;20228;-80
2022/06/13 07:09:08;;;;;;;0.40;0.40;;;18.10;88.70;;;18.63;70.00;94973.91;5072097;28;20190;-82
2022/06/13 07:11:54;;;;;;;0.40;0.40;;;18.20;89.50;;;18.76;69.87;94972.81;5022408;28;20301;-81
2022/06/13 07:14:33;;;;;;;0.40;0.40;;;18.30;90.00;;;18.97;70.06;94975.78;5055518;28;20234;-81
2022/06/13 07:17:04;;;;;;;0.40;0.40;;;18.40;90.00;;;19.11;70.45;94971.75;5057758;28;20259;-81
2022/06/13 07:19:31;;;;;;;0.40;0.40;;;18.60;90.00;;;19.23;69.91;94969.00;5039916;28;20234;-81
2022/06/13 07:21:59;;;;;;;0.40;0.40;;;18.70;89.70;;;19.34;69.97;94973.41;5039383;28;20679;-82
2022/06/13 07:24:27;;;;;;;0.50;0.50;;;18.80;89.60;;;19.45;70.14;94971.69;5038840;28;20229;-82
2022/06/13 07:26:55;;;;;;;0.40;0.40;;;18.90;90.00;;;19.55;69.90;94954.25;5069140;28;20220;-82
2022/06/13 07:29:23;;;;;;;0.40;0.40;;;19.10;90.00;;;19.68;69.77;94962.66;5058944;28;20309;-81
2022/06/13 07:31:58;;;;;;;0.40;0.40;;;19.20;90.00;;;19.81;69.89;94979.28;5040147;28;20225;-81
2022/06/13 07:34:28;;;;;;;0.40;0.40;;;19.30;90.00;;;19.95;70.17;94977.91;5041967;28;20632;-82
2022/06/13 07:36:59;;;;;;;0.43;0.43;;;19.40;90.10;;;20.07;69.67;94963.66;5053220;28;20707;-81
2022/06/13 07:39:26;;;;;;;0.40;0.40;;;19.60;90.00;;;20.18;69.73;94960.03;5053960;28;20222;-81
2022/06/13 07:41:54;;;;;;;0.47;0.47;;;19.60;90.30;;;20.32;70.19;94968.41;5039198;28;20194;-80
2022/06/13 07:44:26;;;;;;;0.40;0.40;;;19.80;90.20;;;20.39;68.59;94965.56;5056066;28;20229;-79
2022/06/13 07:46:53;;;;;;;0.40;0.40;;;19.90;89.50;;;20.48;68.95;94977.34;5040751;28;20298;-79
2022/06/13 07:49:21;;;;;;;0.40;0.40;;;20.00;89.50;;;20.45;67.74;94978.66;5069891;28;20217;-79
2022/06/13 07:51:48;;;;;;;0.40;0.40;;;20.10;88.20;;;20.49;68.03;94973.63;5053582;28;20226;-79
2022/06/13 07:54:17;;;;;;;0.40;0.40;;;20.10;88.20;;;20.45;67.61;94981.34;5048967;28;20197;-78
2022/06/13 07:56:44;;;;;;;0.40;0.40;;;20.10;87.40;;;20.37;66.89;94979.13;5056504;28;20201;-78
2022/06/13 07:59:26;;;;;;;0.50;0.50;;;20.10;86.80;;;20.31;67.40;94966.81;5055839;28;20216;-79
2022/06/13 08:01:53;;;;;;;0.40;0.40;;;20.00;87.10;;;20.22;68.27;94973.66;5046954;28;20207;-79
2022/06/13 08:04:20;;;;;;;0.65;0.65;;;20.00;87.40;;;20.19;68.02;94966.97;5061858;28;20733;-77
2022/06/13 08:07:13;;;;;;;0.40;0.40;;;19.90;87.40;;;20.20;68.50;94970.44;5044706;28;20198;-79
2022/06/13 08:09:41;;;;;;;0.40;0.40;;;19.90;89.00;;;20.17;68.91;94974.41;5041512;28;20365;-77
2022/06/13 08:12:13;;;;;;;0.47;0.47;;;19.90;88.60;;;20.21;69.12;94966.72;5027919;28;20218;-78
2022/06/13 08:14:45;;;;;;;0.40;0.40;;;19.80;88.30;;;20.29;69.43;94964.41;5020710;28;20320;-77
2022/06/13 08:17:14;;;;;;;0.50;0.50;;;19.90;89.10;;;;;;5051798;28;20249;-77
2022/06/13 08:19:41;;;;;;;0.40;0.40;;;20.00;89.00;;;20.41;68.88;94964.25;5037189;28;20320;-78
2022/06/13 08:22:08;;;;;;;0.40;0.40;;;20.10;89.20;;;20.54;69.94;94968.34;5042926;28;20199;-78
2022/06/13 08:24:35;;;;;;;0.40;0.40;;;20.10;89.70;;;20.66;69.88;94972.72;5024582;28;20233;-78
2022/06/13 08:27:04;;;;;;;0.40;0.40;;;20.20;90.00;;;20.75;69.68;94969.38;5033856;28;20342;-79
2022/06/13 08:29:31;;;;;;;0.40;0.40;;;20.20;89.90;;;20.87;69.91;94976.38;5048917;28;20581;-79
2022/06/13 08:32:01;;;;;;;0.40;0.40;;;20.30;90.10;;;21.02;70.04;94979.16;5014430;28;20220;-79
2022/06/13 08:34:30;;;;;;;0.40;0.40;;;20.40;90.20;;;21.14;69.95;94973.66;5049961;28;20219;-79
2022/06/13 08:36:58;;;;;;;0.40;0.40;;;20.60;90.30;;;21.24;67.07;94978.25;5044301;28;20211;-80
2022/06/13 08:39:25;;;;;;;0.40;0.40;;;20.70;89.30;;;21.33;68.37;94973.22;5022142;28;20228;-79
2022/06/13 08:41:51;;;;;;;0.40;0.40;;;20.80;89.70;;;21.43;67.46;94981.28;5046502;28;20209;-79
2022/06/13 08:44:51;;;;;;;0.40;0.40;;;20.90;89.30;;;21.50;68.55;94978.41;5034089;28;20241;-79
2022/06/13 08:47:43;;;;;;;0.50;0.50;;;21.00;89.60;;;21.60;67.74;94970.44;5029080;28;20211;-79
2022/06/13 08:50:48;;;;;;;0.40;0.40;;;21.10;89.00;;;21.71;68.18;94982.78;5062234;28;20225;-80
2022/06/13 08:53:23;;;;;;;0.40;0.40;;;21.20;88.90;;;21.80;67.72;94979.63;5050493;28;20865;-80
2022/06/13 08:56:04;;;;;;;0.30;0.30;;;21.20;88.60;;;21.90;67.69;94982.34;5030273;28;20237;-79
2022/06/13 08:58:41;;;;;;;0.40;0.40;;;21.40;88.70;;;22.01;68.09;94985.84;5051531;28;20227;-77
2022/06/13 09:01:28;;;;;;;0.40;0.40;;;21.40;88.80;;;22.18;68.00;94996.28;5035230;28;20311;-80
2022/06/13 09:04:04;;;;;;;0.30;0.30;;;21.50;89.10;;;22.35;67.57;94991.53;5046707;28;20207;-78
2022/06/13 09:07:15;;;;;;;0.40;0.40;;;21.70;89.10;;;22.61;67.83;94990.81;5040882;28;20201;-80
2022/06/13 09:10:03;;;;;;;0.45;0.45;;;21.80;89.80;;;22.87;67.87;94983.59;5048345;28;20231;-78
2022/06/13 09:12:39;;;;;;;0.50;0.50;;;22.10;89.20;;;23.14;67.98;94972.63;5068691;28;20786;-78
2022/06/13 09:15:14;;;;;;;0.40;0.40;;;22.30;89.90;;;23.29;66.90;94989.72;5078942;28;20233;-80
2022/06/13 09:18:05;;;;;;;0.40;0.40;;;22.50;88.20;;;23.29;63.87;94992.41;5091794;28;20205;-79
2022/06/13 09:20:48;;;;;;;0.40;0.40;;;22.60;85.00;;;23.22;61.97;94990.03;5047011;28;20221;-79
2022/06/13 09:23:31;;;;;;;0.60;0.60;;;22.70;83.60;;;23.17;63.65;94990.81;5058246;28;20267;-79
2022/06/13 09:26:43;;;;;;;0.40;0.40;;;22.70;84.30;;;23.30;64.24;94992.16;5058908;28;20711;-79
2022/06/13 09:29:40;;;;;;;0.30;0.30;;;22.70;84.90;;;23.49;61.53;94994.25;5053442;28;20221;-79
2022/06/13 09:32:44;;;;;;;0.30;0.30;;;23.00;82.20;;;23.66;60.46;94986.69;5067840;28;20279;-78
2022/06/13 09:35:27;;;;;;;0.30;0.30;;;23.10;81.80;;;23.87;59.89;94975.13;5037671;28;20341;-79
2022/06/13 09:38:29;;;;;;;0.55;0.55;;;23.30;80.10;;;24.03;58.32;94984.69;5053240;28;20235;-78
2022/06/13 09:41:03;;;;;;;0.40;0.40;;;23.50;77.60;;;24.18;58.87;94989.19;5045716;28;20320;-79
2022/06/13 09:43:41;;;;;;;0.40;0.40;;;23.80;78.90;;;24.36;60.16;94986.94;5072334;28;20273;-80
2022/06/13 09:46:27;;;;;;;0.40;0.40;;;23.80;79.20;;;24.51;59.57;94984.19;5074509;28;20242;-79
2022/06/13 09:49:28;;;;;;;0.30;0.30;;;24.10;79.20;;;24.61;58.36;94981.41;5072716;28;20199;-80
2022/06/13 09:52:14;;;;;;;0.40;0.40;;;24.20;77.40;;;24.69;56.64;94990.78;5042499;28;20208;-79
2022/06/13 09:55:08;;;;;;;0.40;0.40;;;24.40;76.80;;;24.81;58.33;94974.31;5048582;28;20603;-79
2022/06/13 09:58:24;;;;;;;0.50;0.50;;;24.50;76.10;;;24.89;57.38;94963.00;5059934;28;20337;-79
2022/06/13 10:01:21;;;;;;;0.38;0.38;;;24.60;76.60;;;25.00;57.31;94970.94;5047503;28;20222;-79
2022/06/13 10:04:13;;;;;;;0.30;0.30;;;24.70;75.40;;;25.02;56.23;94958.84;5063498;28;20209;-80
2022/06/13 10:06:47;;;;;;;0.35;0.35;;;24.80;75.10;;;25.06;55.15;94959.91;5049765;28;20195;-79
2022/06/13 10:09:35;;;;;;;0.50;0.50;;;24.90;73.50;;;25.14;55.63;94960.38;5049647;28;20201;-79
2022/06/13 10:12:35;;;;;;;0.30;0.30;;;24.90;73.70;;;25.23;55.64;94954.09;5045417;28;20664;-81
2022/06/13 10:15:35;;;;;;;0.40;0.40;;;25.00;73.40;;;25.40;55.65;94944.81;5020946;28;20336;-79
2022/06/13 10:18:28;;;;;;;0.22;0.22;;;25.20;73.90;;;25.54;55.29;94953.78;5056239;28;20196;-79
2022/06/13 10:21:13;;;;;;;0.50;0.50;;;25.30;74.10;;;25.56;52.75;94937.38;5111221;28;20232;-81
2022/06/13 10:24:09;;;;;;;0.30;0.30;;;25.40;71.80;;;25.54;54.28;94951.09;5107569;28;20653;-80
2022/06/13 10:27:07;;;;;;;0.40;0.40;;;25.40;72.90;;;25.56;51.92;94957.00;5059887;28;20670;-81
2022/06/13 10:30:03;;;;;;;0.35;0.35;;;25.50;72.10;;;25.52;51.11;94929.13;5059622;28;20228;-80
2022/06/13 10:32:56;;;;;;;0.22;0.22;;;25.50;70.60;;;25.54;50.48;94934.22;5059868;28;20231;-80
2022/06/13 10:35:48;;;;;;;0.30;0.30;;;25.50;70.40;;;25.52;50.63;94926.44;5063076;28;20263;-79
2022/06/13 10:39:02;;;;;;;0.38;0.38;;;25.50;69.20;;;25.62;51.90;94916.66;5079834;28;20211;-80
2022/06/13 10:41:35;;;;;;;0.30;0.30;;;25.60;70.70;;;25.74;51.02;94925.09;5096550;28;20192;-80
2022/06/13 10:44:07;;;;;;;0.40;0.40;;;25.70;69.30;;;25.84;51.14;94921.47;5080075;28;20191;-80
2022/06/13 10:46:34;;;;;;;0.40;0.40;;;25.70;69.40;;;25.92;52.31;94923.53;5058803;28;20645;-81
2022/06/13 10:49:21;;;;;;;0.40;0.40;;;25.80;70.00;;;26.11;52.99;94922.75;5022953;28;20203;-80
2022/06/13 10:51:50;;;;;;;0.30;0.30;;;25.90;71.00;;;26.32;53.58;94917.91;5056165;28;20194;-80
2022/06/13 10:54:29;;;;;;;0.25;0.25;;;26.00;70.90;;;26.48;51.21;94924.63;5055989;28;20479;-81
2022/06/13 10:57:04;;;;;;;0.30;0.30;;;26.20;71.00;;;26.56;49.55;94923.16;5039341;28;20247;-80
2022/06/13 10:59:36;;;;;;;0.30;0.30;;;26.40;68.30;;;26.58;49.18;94909.44;5044290;28;20233;-80
2022/06/13 11:02:19;;;;;;;0.30;0.30;;;26.40;67.40;;;26.61;49.63;94912.34;5023882;28;20218;-79
2022/06/13 11:05:06;;;;;;;0.30;0.30;;;26.50;67.50;;;26.65;50.65;94902.56;5047477;28;21398;-80
2022/06/13 11:07:43;;;;;;;0.30;0.30;;;26.50;68.10;;;26.67;49.52;94907.66;5046172;28;20210;-80
2022/06/13 11:10:39;;;;;;;0.20;0.20;;;26.60;67.10;;;26.57;46.98;94902.44;5047371;28;20221;-79
2022/06/13 11:13:15;;;;;;;0.30;0.30;;;26.60;66.00;;;26.59;48.26;94884.13;5040210;28;20317;-80
2022/06/13 11:24:54;;;;;;;0.30;0.30;;;26.50;65.60;;;26.47;47.92;94857.69;5053705;28;20225;-80
2022/06/13 11:27:42;;;;;;;0.30;0.30;;;26.50;65.60;;;26.57;47.71;94870.97;5029919;28;20680;-81
2022/06/13 11:30:27;;;;;;;0.30;0.30;;;26.50;65.60;;;26.65;47.68;94866.81;5065429;28;20225;-80